Saint George's, Canada
Current Conditions -  °F | °C
As of 4:00 PM on Monday 22 Dec 2014 (Local Time) from CYJT Reporting Station
Scattered Clouds Scattered Clouds  
Wind Chill: 28°   Ceiling: Unl
Heat Index: 28°   Visibility: 15mi
Dew Point: 21°   Wind: 3mph
Humidity: 74%   Direction: 180°S
Pressure: 30.44"   Gusts: NA
Location:  48.43°N, 58.5°W
Report Text: CYJT 221900Z 18003KT 15SM FEW025 SCT200 M02/M06 A3044 RMK SC1CI2 SLP308
Loading
Personal Weather Stations






























Interactive Weather Map New forecast layout! Learn more

10-Day Weather Forecast

Advertisements
Track Severe Weather on mobile